Time;durP1;ratioP1;P1;durP2;ratioP2;P2;SDS_P1;SDS_P2;PMS_P1;PMS_P2;Temp;Humidity;BMP_temperature;BMP_pressure;BME280_temperature;BME280_humidity;BME280_pressure;Samples;Min_cycle;Max_cycle;Signal;HPM_P1;HPM_P2
2023/10/30 00:01:07;;;;;;;;;2.00;1.00;;;;;21.75;59.50;99513.16;110123;1266;21543;-33
2023/10/30 00:03:38;;;;;;;;;1.00;1.00;;;;;21.76;59.11;99512.11;110157;1251;20070;-32
2023/10/30 00:06:06;;;;;;;;;1.00;1.00;;;;;21.75;59.40;99514.64;110127;1265;20007;-32
2023/10/30 00:08:34;;;;;;;;;1.00;1.00;;;;;21.75;59.16;99520.73;110144;1252;20808;-32
2023/10/30 00:11:01;;;;;;;;;1.50;1.50;;;;;21.77;59.33;99524.17;110156;1257;18216;-32
2023/10/30 00:13:29;;;;;;;;;1.00;1.00;;;;;21.76;59.35;99522.34;110139;1265;18541;-32
2023/10/30 00:15:56;;;;;;;;;1.00;1.00;;;;;21.75;59.41;99523.78;110141;1251;20791;-32
2023/10/30 00:18:23;;;;;;;;;1.00;1.00;;;;;21.74;59.48;99529.58;110060;1251;18767;-33
2023/10/30 00:20:51;;;;;;;;;1.00;1.00;;;;;21.74;59.09;99530.89;110029;1257;22964;-32
2023/10/30 00:23:18;;;;;;;;;1.00;1.00;;;;;21.73;59.28;99532.55;110140;1257;19377;-32
2023/10/30 00:25:46;;;;;;;;;1.00;1.00;;;;;21.73;59.37;99520.08;110131;1252;19627;-32
2023/10/30 00:28:13;;;;;;;;;1.00;1.00;;;;;21.74;59.22;99526.27;110161;1265;19005;-32
2023/10/30 00:30:40;;;;;;;;;1.00;1.00;;;;;21.73;59.14;99526.23;110136;1251;21117;-32
2023/10/30 00:33:08;;;;;;;;;1.00;1.00;;;;;21.73;59.13;99522.19;110150;1250;22758;-32
2023/10/30 00:35:35;;;;;;;;;1.00;1.00;;;;;21.74;59.08;99523.05;110148;1250;18621;-32
2023/10/30 00:38:03;;;;;;;;;1.00;1.00;;;;;21.74;58.80;99525.08;110168;1259;20828;-32
2023/10/30 00:40:31;;;;;;;;;1.00;1.00;;;;;21.74;59.05;99527.52;110182;1252;19640;-32
2023/10/30 00:42:59;;;;;;;;;1.00;1.00;;;;;21.74;58.95;99525.73;110159;1265;22089;-32
2023/10/30 00:45:26;;;;;;;;;1.00;1.00;;;;;21.73;58.66;99524.52;110094;1265;22603;-32
2023/10/30 00:47:53;;;;;;;;;1.00;1.00;;;;;21.77;58.71;99524.02;110115;1252;19603;-32
2023/10/30 00:50:21;;;;;;;;;1.00;1.00;;;;;21.75;58.66;99526.64;110165;1265;18631;-33
2023/10/30 00:52:48;;;;;;;;;1.00;1.00;;;;;21.73;58.61;99527.15;110140;1250;20839;-34
2023/10/30 00:55:16;;;;;;;;;1.00;1.00;;;;;21.75;58.58;99534.64;110141;1265;19560;-33
2023/10/30 00:57:43;;;;;;;;;1.00;1.00;;;;;21.75;58.57;99540.64;110146;1265;18628;-31
2023/10/30 01:00:11;;;;;;;;;1.00;1.00;;;;;21.76;58.44;99538.64;110144;1250;20724;-33
2023/10/30 01:02:39;;;;;;;;;1.00;1.00;;;;;21.76;58.49;99546.48;110139;1265;18367;-32
2023/10/30 01:05:08;;;;;;;;;1.50;1.00;;;;;21.73;58.39;99544.21;110141;1251;20078;-33
2023/10/30 01:07:36;;;;;;;;;1.00;1.00;;;;;21.72;58.57;99546.20;110146;1258;20957;-32
2023/10/30 01:10:03;;;;;;;;;1.00;1.00;;;;;21.73;58.21;99548.36;110147;1250;18376;-33
2023/10/30 01:12:31;;;;;;;;;1.00;1.00;;;;;21.72;58.53;99549.84;110176;1251;20153;-32
2023/10/30 01:14:58;;;;;;;;;1.00;1.00;;;;;21.70;58.51;99552.14;110160;1249;20862;-33
2023/10/30 01:17:25;;;;;;;;;1.00;1.00;;;;;21.73;58.17;99551.30;110144;1251;19628;-32
2023/10/30 01:19:53;;;;;;;;;1.00;1.00;;;;;21.76;58.05;99544.43;110152;1251;22466;-33
2023/10/30 01:22:20;;;;;;;;;1.00;1.00;;;;;21.72;58.26;99544.72;110176;1265;19400;-33
2023/10/30 01:24:48;;;;;;;;;1.00;1.00;;;;;21.70;58.18;99545.69;110139;1251;22247;-32
2023/10/30 01:27:15;;;;;;;;;1.00;1.00;;;;;21.69;58.32;99542.56;110145;1250;19863;-32
2023/10/30 01:29:42;;;;;;;;;2.00;1.00;;;;;21.71;58.13;99555.16;110161;1266;21698;-32
2023/10/30 01:32:10;;;;;;;;;1.00;1.00;;;;;21.70;58.11;99559.23;110149;1249;19032;-33
2023/10/30 01:34:37;;;;;;;;;1.00;1.00;;;;;21.68;58.29;99559.91;110147;1259;18735;-32
2023/10/30 01:37:05;;;;;;;;;1.00;1.00;;;;;21.68;58.26;99554.20;110127;1249;22252;-32
2023/10/30 01:39:32;;;;;;;;;2.00;2.00;;;;;21.67;58.29;99559.77;110158;1249;19507;-32
2023/10/30 01:42:00;;;;;;;;;1.00;1.00;;;;;21.66;58.41;99560.60;110100;1250;20131;-32
2023/10/30 01:44:27;;;;;;;;;1.00;1.00;;;;;21.67;58.23;99556.73;110067;1265;21006;-32
2023/10/30 01:46:55;;;;;;;;;1.00;1.00;;;;;21.67;58.33;99551.49;110141;1257;18411;-32
2023/10/30 01:49:22;;;;;;;;;1.00;1.00;;;;;21.66;58.01;99557.71;110108;1251;22584;-32
2023/10/30 01:51:50;;;;;;;;;1.00;1.00;;;;;21.68;57.98;99558.66;110169;1265;19371;-32
2023/10/30 01:54:17;;;;;;;;;1.00;1.00;;;;;21.67;58.21;99563.69;110144;1252;18434;-32
2023/10/30 01:56:45;;;;;;;;;1.00;1.00;;;;;21.66;58.15;99567.27;110140;1259;20070;-33
2023/10/30 01:59:12;;;;;;;;;1.00;1.00;;;;;21.66;58.22;99564.41;110163;1250;19356;-32
2023/10/30 02:01:39;;;;;;;;;1.00;1.00;;;;;21.65;58.03;99568.85;110138;1266;19524;-32
2023/10/30 02:04:07;;;;;;;;;1.00;1.00;;;;;21.67;57.86;99571.66;110122;1251;20038;-32
2023/10/30 02:06:34;;;;;;;;;1.00;1.00;;;;;21.66;57.88;99571.63;110124;1265;21999;-32
2023/10/30 02:09:02;;;;;;;;;1.00;1.00;;;;;21.65;58.11;99575.77;110136;1252;19594;-32
2023/10/30 02:11:29;;;;;;;;;1.00;1.00;;;;;21.66;58.07;99575.31;110149;1265;20135;-32
2023/10/30 02:13:56;;;;;;;;;1.00;1.00;;;;;21.70;57.88;99584.14;110148;1265;20636;-32
2023/10/30 02:16:24;;;;;;;;;1.00;1.00;;;;;21.68;57.58;99587.33;110177;1265;18650;-33
2023/10/30 02:18:51;;;;;;;;;1.00;1.00;;;;;21.66;57.71;99586.05;110157;1265;18614;-33
2023/10/30 02:21:19;;;;;;;;;1.00;1.00;;;;;21.65;58.02;99581.65;110146;1265;19529;-32
2023/10/30 02:23:46;;;;;;;;;1.00;1.00;;;;;21.67;57.66;99585.92;110158;1251;19627;-32
2023/10/30 02:26:14;;;;;;;;;1.00;1.00;;;;;21.67;57.77;99580.70;110150;1250;22380;-32
2023/10/30 02:28:41;;;;;;;;;1.00;1.00;;;;;21.66;57.75;99584.97;110145;1250;20770;-32
2023/10/30 02:31:09;;;;;;;;;1.00;1.00;;;;;21.66;57.61;99589.94;110145;1266;22104;-32
2023/10/30 02:33:36;;;;;;;;;1.00;1.00;;;;;21.65;57.74;99591.80;110139;1265;19962;-33
2023/10/30 02:36:03;;;;;;;;;1.67;1.67;;;;;21.65;57.74;99588.42;110113;1253;21786;-32
2023/10/30 02:38:31;;;;;;;;;1.00;1.00;;;;;21.64;57.95;99590.58;110062;1266;18270;-32
2023/10/30 02:40:59;;;;;;;;;1.00;1.00;;;;;21.65;57.74;99592.13;110039;1265;19804;-32
2023/10/30 02:43:26;;;;;;;;;1.00;1.00;;;;;21.65;57.66;99594.80;110165;1250;20817;-32
2023/10/30 02:45:53;;;;;;;;;1.00;1.00;;;;;21.65;57.54;99599.70;110142;1264;19572;-32
2023/10/30 02:48:21;;;;;;;;;1.00;1.00;;;;;21.64;57.70;99599.73;110041;1253;20237;-32
2023/10/30 02:50:48;;;;;;;;;2.00;1.00;;;;;21.65;57.60;99608.80;110150;1253;20799;-33
2023/10/30 02:53:15;;;;;;;;;1.00;1.00;;;;;21.65;57.63;99611.05;110152;1266;19516;-33
2023/10/30 02:55:43;;;;;;;;;1.00;1.00;;;;;21.64;57.59;99623.23;110151;1265;22162;-33
2023/10/30 02:58:11;;;;;;;;;2.00;1.00;;;;;21.64;57.51;99621.91;110139;1265;19451;-33
2023/10/30 03:00:38;;;;;;;;;1.33;1.33;;;;;21.64;57.58;99622.06;110162;1253;19854;-33
2023/10/30 03:03:05;;;;;;;;;1.00;1.00;;;;;21.63;57.63;99621.86;110171;1266;18614;-33
2023/10/30 03:05:33;;;;;;;;;1.00;1.00;;;;;21.63;57.44;99627.70;110148;1265;21100;-32
2023/10/30 03:08:01;;;;;;;;;1.00;1.00;;;;;21.63;57.40;99626.45;110126;1250;18825;-32
2023/10/30 03:10:28;;;;;;;;;1.00;1.00;;;;;21.63;57.43;99625.74;110153;1253;20208;-33
2023/10/30 03:12:56;;;;;;;;;1.00;1.00;;;;;21.64;57.52;99629.05;110152;1259;22064;-33
2023/10/30 03:15:23;;;;;;;;;1.00;1.00;;;;;21.63;57.61;99629.23;110167;1251;19601;-33
2023/10/30 03:17:50;;;;;;;;;1.00;1.00;;;;;21.63;57.66;99629.94;110119;1251;20104;-33
2023/10/30 03:20:18;;;;;;;;;1.00;1.00;;;;;21.63;57.40;99633.91;110129;1266;22253;-32
2023/10/30 03:22:45;;;;;;;;;1.00;1.00;;;;;21.62;57.55;99632.69;110133;1253;19610;-33
2023/10/30 03:25:13;;;;;;;;;1.00;1.00;;;;;21.62;57.36;99631.70;110128;1265;22168;-33
2023/10/30 03:27:41;;;;;;;;;1.00;1.00;;;;;21.62;57.44;99632.08;110162;1265;19270;-33
2023/10/30 03:30:08;;;;;;;;;1.00;1.00;;;;;21.63;57.29;99634.62;110139;1265;20075;-32
2023/10/30 03:32:36;;;;;;;;;1.00;1.00;;;;;21.62;57.59;99627.23;110144;1250;20031;-32
2023/10/30 03:35:03;;;;;;;;;1.00;1.00;;;;;21.63;57.33;99625.42;110027;1261;20874;-32
2023/10/30 03:37:31;;;;;;;;;1.00;1.00;;;;;21.62;57.39;99628.74;110088;1265;19538;-32
2023/10/30 03:39:58;;;;;;;;;1.00;1.00;;;;;21.63;57.34;99635.45;110173;1265;20011;-32
2023/10/30 03:42:25;;;;;;;;;1.00;1.00;;;;;21.62;57.44;99643.04;110164;1265;19359;-32
2023/10/30 03:44:53;;;;;;;;;1.00;1.00;;;;;21.63;57.26;99657.96;110175;1249;20879;-32
2023/10/30 03:47:20;;;;;;;;;1.00;1.00;;;;;21.63;57.22;99659.38;110118;1252;20074;-32
2023/10/30 03:49:48;;;;;;;;;1.00;1.00;;;;;21.64;57.24;99655.31;110154;1251;22527;-32
2023/10/30 03:52:15;;;;;;;;;1.00;1.00;;;;;21.63;57.15;99659.05;110152;1259;19558;-32
2023/10/30 03:54:43;;;;;;;;;1.00;1.00;;;;;21.62;57.23;99662.00;110150;1265;18583;-32
2023/10/30 03:57:10;;;;;;;;;2.00;1.00;;;;;21.64;57.08;99661.09;110158;1265;19384;-32
2023/10/30 03:59:38;;;;;;;;;4.00;1.00;;;;;21.65;57.27;99656.45;110147;1251;20866;-32
2023/10/30 04:02:05;;;;;;;;;1.00;1.00;;;;;21.66;57.08;99653.64;110153;1252;21514;-33
2023/10/30 04:04:32;;;;;;;;;1.00;1.00;;;;;21.66;57.26;99650.91;110147;1265;19343;-32
2023/10/30 04:07:01;;;;;;;;;1.50;1.50;;;;;21.69;56.90;99652.55;110148;1265;18407;-32
2023/10/30 04:09:29;;;;;;;;;2.00;1.00;;;;;21.67;56.96;99658.52;110130;1250;19980;-32
2023/10/30 04:11:56;;;;;;;;;1.00;1.00;;;;;21.66;57.10;99662.74;110158;1251;19572;-32
2023/10/30 04:14:24;;;;;;;;;1.00;1.00;;;;;21.65;57.18;99661.95;110120;1266;18414;-34
2023/10/30 04:16:51;;;;;;;;;1.00;1.00;;;;;21.68;57.14;99661.80;110150;1249;19949;-33
2023/10/30 04:19:19;;;;;;;;;1.00;1.00;;;;;21.66;56.97;99661.88;110152;1250;19394;-33
2023/10/30 04:21:46;;;;;;;;;1.00;1.00;;;;;21.64;56.89;99669.00;110137;1265;18548;-34
2023/10/30 04:24:13;;;;;;;;;1.00;1.00;;;;;21.67;56.99;99673.75;110128;1265;22925;-33
2023/10/30 04:26:41;;;;;;;;;1.67;1.00;;;;;21.65;57.00;99670.51;110158;1251;20802;-33
2023/10/30 04:29:08;;;;;;;;;2.00;1.00;;;;;21.62;57.11;99659.94;110144;1265;19350;-33
2023/10/30 04:31:36;;;;;;;;;1.00;1.00;;;;;21.62;57.09;99661.09;110140;1250;23436;-33
2023/10/30 04:34:03;;;;;;;;;1.00;1.00;;;;;21.61;57.02;99667.27;110134;1251;20785;-33
2023/10/30 04:36:30;;;;;;;;;1.00;1.00;;;;;21.61;57.08;99669.38;110159;1265;18427;-33
2023/10/30 04:38:58;;;;;;;;;1.50;1.50;;;;;21.62;57.02;99670.02;110170;1253;20018;-33
2023/10/30 04:41:25;;;;;;;;;1.00;1.00;;;;;21.67;57.03;99665.19;110151;1254;20719;-33
2023/10/30 04:43:53;;;;;;;;;1.00;1.00;;;;;21.64;56.77;99642.02;110151;1251;19604;-33
2023/10/30 04:46:20;;;;;;;;;1.00;1.00;;;;;21.67;56.91;99652.11;110125;1265;18839;-32
2023/10/30 04:48:48;;;;;;;;;1.00;1.00;;;;;21.65;56.86;99670.88;110077;1265;19509;-33
2023/10/30 04:51:15;;;;;;;;;1.00;1.00;;;;;21.66;57.09;99679.81;110134;1249;19676;-32
2023/10/30 04:53:42;;;;;;;;;1.00;1.00;;;;;21.66;57.03;99677.85;110145;1265;18795;-32
2023/10/30 04:56:10;;;;;;;;;1.00;1.00;;;;;21.65;56.93;99671.32;110123;1251;20985;-32
2023/10/30 04:58:37;;;;;;;;;1.00;1.00;;;;;21.68;56.52;99672.04;110098;1265;22203;-32
2023/10/30 05:01:05;;;;;;;;;2.00;1.00;;;;;21.65;56.87;99664.30;110022;1265;21420;-34
2023/10/30 05:03:32;;;;;;;;;1.00;1.00;;;;;21.67;56.89;99664.87;110150;1265;19368;-33
2023/10/30 05:06:00;;;;;;;;;1.00;1.00;;;;;21.68;56.76;99662.98;110000;1265;209502;-33
2023/10/30 05:08:27;;;;;;;;;2.00;1.00;;;;;21.65;56.97;99674.15;110189;1259;19985;-33
2023/10/30 05:10:55;;;;;;;;;1.00;1.00;;;;;21.64;56.85;99685.90;110137;1265;21859;-33
2023/10/30 05:13:22;;;;;;;;;1.00;1.00;;;;;21.64;56.67;99674.67;110169;1251;19866;-33
2023/10/30 05:15:50;;;;;;;;;1.00;1.00;;;;;21.67;56.91;99672.11;110170;1251;20274;-33
2023/10/30 05:18:21;;;;;;;;;1.00;1.00;;;;;21.67;56.71;99677.28;110125;1251;20919;-33
2023/10/30 05:20:48;;;;;;;;;1.00;1.00;;;;;21.64;56.65;99682.58;110137;1250;19608;-33
2023/10/30 05:23:16;;;;;;;;;1.50;1.00;;;;;21.64;56.85;99673.11;110153;1251;20112;-32
2023/10/30 05:25:43;;;;;;;;;1.00;1.00;;;;;21.64;56.92;99680.51;110102;1251;20852;-32
2023/10/30 05:28:11;;;;;;;;;1.00;1.00;;;;;21.67;56.76;99683.44;110064;1250;20338;-33
2023/10/30 05:30:38;;;;;;;;;2.00;2.00;;;;;21.63;56.83;99684.51;110134;1253;20027;-32
2023/10/30 05:33:06;;;;;;;;;2.00;2.00;;;;;21.64;56.79;99686.29;110136;1259;20735;-32
2023/10/30 05:35:33;;;;;;;;;2.00;2.00;;;;;21.62;56.97;99691.64;110166;1265;19542;-32
2023/10/30 05:38:03;;;;;;;;;4.00;2.00;;;;;21.63;56.84;99678.20;110155;1259;18660;-32
2023/10/30 05:40:31;;;;;;;;;2.00;2.00;;;;;21.63;56.84;99684.90;110148;1251;20801;-32
2023/10/30 05:42:58;;;;;;;;;1.00;1.00;;;;;21.63;56.60;99687.82;110099;1259;19573;-33
2023/10/30 05:45:26;;;;;;;;;1.50;1.50;;;;;21.63;56.88;99693.99;110117;1265;18620;-32
2023/10/30 05:47:53;;;;;;;;;1.00;1.00;;;;;21.61;56.81;99695.83;110154;1252;20799;-32
2023/10/30 05:50:21;;;;;;;;;1.00;1.00;;;;;21.62;56.93;99693.64;110108;1249;24111;-32
2023/10/30 05:52:48;;;;;;;;;1.00;1.00;;;;;21.65;56.68;99698.96;110132;1250;19971;-33
2023/10/30 05:55:15;;;;;;;;;2.00;1.00;;;;;21.66;56.61;99711.04;110050;1265;19217;-33
2023/10/30 05:57:45;;;;;;;;;1.50;1.50;;;;;21.67;56.41;99712.67;109989;1249;19558;-33
2023/10/30 06:00:12;;;;;;;;;1.00;1.00;;;;;21.65;56.47;99710.56;110054;1250;20089;-33
2023/10/30 06:02:39;;;;;;;;;1.00;1.00;;;;;21.66;56.43;99722.92;110020;1251;20946;-33
2023/10/30 06:05:08;;;;;;;;;1.00;1.00;;;;;21.67;56.57;99722.96;110076;1265;18449;-33
2023/10/30 06:07:36;;;;;;;;;1.00;1.00;;;;;21.67;56.44;99726.34;110155;1253;20113;-33
2023/10/30 06:10:04;;;;;;;;;1.00;1.00;;;;;21.69;56.38;99725.98;110047;1249;20718;-33
2023/10/30 06:12:32;;;;;;;;;1.00;1.00;;;;;21.77;56.16;99737.89;110197;1249;19619;-33
2023/10/30 06:14:59;;;;;;;;;1.00;1.00;;;;;21.80;56.17;99731.06;110166;1253;22509;-33
2023/10/30 06:17:27;;;;;;;;;2.00;2.00;;;;;21.82;56.23;99728.40;110117;1265;21152;-33
2023/10/30 06:19:54;;;;;;;;;4.00;4.00;;;;;21.86;56.22;99732.73;110180;1265;18719;-32
2023/10/30 06:22:22;;;;;;;;;2.00;2.00;;;;;21.85;57.61;99744.53;110144;1265;18549;-33
2023/10/30 06:24:49;;;;;;;;;1.00;1.00;;;;;21.88;57.69;99750.44;110202;1265;21107;-33
2023/10/30 06:27:17;;;;;;;;;1.00;1.00;;;;;21.92;58.48;99761.63;110093;1265;18531;-32
2023/10/30 06:29:44;;;;;;;;;2.00;2.00;;;;;22.10;59.68;99771.46;110153;1253;20247;-32
2023/10/30 06:32:11;;;;;;;;;1.50;1.50;;;;;22.24;59.12;99778.81;110204;1265;19386;-32
2023/10/30 06:34:41;;;;;;;;;4.50;4.00;;;;;22.29;59.00;99780.48;110170;1253;19615;-32
2023/10/30 06:37:09;;;;;;;;;1.00;1.00;;;;;22.27;59.05;99777.99;110152;1250;18709;-32
2023/10/30 06:39:37;;;;;;;;;1.00;1.00;;;;;22.34;58.87;99775.37;110113;1265;21885;-33
2023/10/30 06:42:05;;;;;;;;;1.00;1.00;;;;;22.38;58.61;99774.03;110175;1253;19624;-33
2023/10/30 06:44:32;;;;;;;;;1.00;1.00;;;;;22.43;58.00;99772.16;110161;1265;18620;-33
2023/10/30 06:46:59;;;;;;;;;2.00;2.00;;;;;22.39;58.37;99770.02;110142;1265;19393;-33
2023/10/30 06:49:27;;;;;;;;;2.00;2.00;;;;;22.37;58.51;99776.23;110081;1251;19572;-33
2023/10/30 06:51:55;;;;;;;;;2.00;2.00;;;;;22.31;58.31;99782.08;110059;1253;21196;-33
2023/10/30 06:54:22;;;;;;;;;1.00;1.00;;;;;22.36;58.04;99783.52;110089;1250;20775;-33
2023/10/30 06:56:50;;;;;;;;;1.00;1.00;;;;;22.35;57.93;99785.61;110165;1257;19584;-33
2023/10/30 06:59:17;;;;;;;;;1.00;1.00;;;;;22.28;58.31;99783.93;109943;1257;22820;-33
2023/10/30 07:01:45;;;;;;;;;2.00;2.00;;;;;22.26;58.41;99783.05;110140;1253;20878;-33
2023/10/30 07:04:12;;;;;;;;;2.00;2.00;;;;;22.24;58.28;99774.52;110174;1249;19634;-33
2023/10/30 07:06:40;;;;;;;;;2.00;2.00;;;;;22.11;58.23;99777.35;110094;1259;19977;-33
2023/10/30 07:09:07;;;;;;;;;2.00;2.00;;;;;22.11;57.98;99778.59;110104;1250;20607;-33
2023/10/30 07:11:35;;;;;;;;;4.00;4.00;;;;;22.02;57.04;99778.86;110095;1252;19634;-34
2023/10/30 07:14:02;;;;;;;;;5.00;4.00;;;;;21.91;56.26;99781.13;110128;1253;21427;-34
2023/10/30 07:16:30;;;;;;;;;2.00;2.00;;;;;21.82;56.44;99771.65;110100;1250;20944;-34
2023/10/30 07:18:57;;;;;;;;;4.00;4.00;;;;;21.75;56.30;99772.52;110042;1262;19639;-34
2023/10/30 07:21:25;;;;;;;;;4.00;4.00;;;;;21.71;56.24;99773.37;110011;1265;22599;-34
2023/10/30 07:23:52;;;;;;;;;4.00;4.00;;;;;21.68;55.44;99775.92;110113;1265;19334;-34
2023/10/30 07:26:21;;;;;;;;;8.00;7.00;;;;;21.70;55.34;99778.13;110093;1253;19649;-35
2023/10/30 07:28:48;;;;;;;;;6.00;5.00;;;;;21.83;54.43;99782.90;110133;1250;20057;-34
2023/10/30 07:31:17;;;;;;;;;7.00;7.00;;;;;21.86;53.53;99786.73;110115;1265;19375;-35
2023/10/30 07:33:45;;;;;;;;;7.00;5.00;;;;;21.77;52.91;99786.18;110124;1249;22187;-34
2023/10/30 07:36:12;;;;;;;;;7.00;7.00;;;;;21.74;53.00;99805.77;110150;1250;18535;-34
2023/10/30 07:38:40;;;;;;;;;5.67;5.67;;;;;21.96;52.57;99820.14;110142;1265;19353;-34
2023/10/30 07:41:08;;;;;;;;;5.00;5.00;;;;;22.07;51.27;99828.80;110134;1265;18571;-34
2023/10/30 07:43:35;;;;;;;;;7.00;7.00;;;;;22.13;50.71;99816.90;110155;1265;19101;-34
2023/10/30 07:46:02;;;;;;;;;7.00;7.00;;;;;22.18;50.50;99810.80;110168;1265;19367;-34
2023/10/30 07:48:30;;;;;;;;;8.00;7.00;;;;;22.20;50.21;99816.73;110140;1250;19881;-34
2023/10/30 07:50:57;;;;;;;;;4.00;4.00;;;;;22.19;49.90;99826.16;110114;1250;20218;-34
2023/10/30 07:53:25;;;;;;;;;7.00;7.00;;;;;22.23;49.80;99827.07;110116;1251;22039;-34
2023/10/30 07:55:52;;;;;;;;;5.00;5.00;;;;;22.27;49.65;99826.45;110115;1249;19628;-34
2023/10/30 07:58:20;;;;;;;;;7.00;5.00;;;;;22.30;49.39;99825.96;110108;1265;18646;-34
2023/10/30 08:00:47;;;;;;;;;7.00;4.00;;;;;22.30;49.47;99820.29;110112;1251;20723;-34
2023/10/30 08:03:16;;;;;;;;;7.00;7.00;;;;;22.31;49.15;99823.60;110142;1250;19612;-34
2023/10/30 08:05:43;;;;;;;;;8.00;7.00;;;;;22.37;48.27;99828.82;110084;1252;22895;-34
2023/10/30 08:08:11;;;;;;;;;9.00;8.00;;;;;22.46;46.24;99820.13;110071;1251;20823;-34
2023/10/30 08:10:38;;;;;;;;;9.00;8.00;;;;;22.34;45.16;99821.14;110112;1258;19847;-34
2023/10/30 08:13:06;;;;;;;;;7.00;7.00;;;;;22.01;46.03;99815.96;110121;1265;18621;-34
2023/10/30 08:15:33;;;;;;;;;11.00;9.00;;;;;22.05;45.06;99825.77;110112;1251;20760;-34
2023/10/30 08:18:01;;;;;;;;;7.00;7.00;;;;;22.22;44.00;99837.67;110119;1251;19635;-34
2023/10/30 08:20:28;;;;;;;;;8.00;8.00;;;;;22.30;44.05;99840.92;110134;1266;19958;-34
2023/10/30 08:22:56;;;;;;;;;8.50;7.00;;;;;22.28;43.98;99843.46;110163;1265;20598;-34
2023/10/30 08:25:25;;;;;;;;;7.00;7.00;;;;;22.33;43.79;99856.70;110129;1251;19674;-34
2023/10/30 08:27:52;;;;;;;;;9.00;9.00;;;;;22.34;43.62;99864.85;110141;1250;20484;-34
2023/10/30 08:30:20;;;;;;;;;8.00;7.00;;;;;22.41;43.69;99866.13;110135;1265;21972;-34
2023/10/30 08:32:48;;;;;;;;;8.00;8.00;;;;;22.40;43.42;99865.61;110120;1265;18412;-33
2023/10/30 08:35:15;;;;;;;;;8.00;8.00;;;;;22.29;43.29;99875.02;110148;1250;20104;-34
2023/10/30 08:37:43;;;;;;;;;13.00;10.00;;;;;22.16;43.55;99878.33;110145;1250;20966;-34
2023/10/30 08:40:10;;;;;;;;;7.00;7.00;;;;;22.22;43.25;99883.07;110137;1250;19634;-33
2023/10/30 08:42:38;;;;;;;;;7.00;7.00;;;;;22.21;43.21;99884.78;110160;1265;18715;-34
2023/10/30 08:45:07;;;;;;;;;7.00;7.00;;;;;22.11;43.26;99902.91;110144;1250;20772;-34
2023/10/30 08:47:34;;;;;;;;;7.00;7.00;;;;;22.08;43.44;99896.80;110221;1250;19642;-33
2023/10/30 08:50:02;;;;;;;;;7.00;7.00;;;;;22.11;43.31;99900.56;110127;1265;18574;-34
2023/10/30 08:52:29;;;;;;;;;9.00;8.00;;;;;22.16;43.14;99908.33;110151;1253;20846;-34
2023/10/30 08:54:57;;;;;;;;;5.00;5.00;;;;;22.02;43.52;99918.25;110119;1266;18627;-34
2023/10/30 08:57:24;;;;;;;;;7.00;7.00;;;;;22.01;43.53;99911.13;110150;1250;22701;-34
2023/10/30 08:59:52;;;;;;;;;5.00;5.00;;;;;21.85;43.81;99901.20;110137;1250;19854;-34
2023/10/30 09:02:19;;;;;;;;;5.00;5.00;;;;;21.67;44.15;99888.61;110149;1265;22351;-34
2023/10/30 09:04:46;;;;;;;;;8.00;7.00;;;;;21.61;44.04;99878.91;110132;1265;20016;-34
2023/10/30 09:07:14;;;;;;;;;7.00;7.00;;;;;21.59;44.08;99868.19;110136;1251;22201;-34
2023/10/30 09:09:41;;;;;;;;;8.00;8.00;;;;;21.69;43.90;99859.14;110160;1265;18529;-34
2023/10/30 09:12:09;;;;;;;;;5.00;5.00;;;;;21.74;43.86;99874.55;110110;1252;20011;-34
2023/10/30 09:14:36;;;;;;;;;12.67;11.67;;;;;21.72;44.11;99884.13;110050;1265;19384;-34
2023/10/30 09:17:04;;;;;;;;;10.00;10.00;;;;;21.72;44.20;99876.45;110120;1265;18227;-34
2023/10/30 09:19:31;;;;;;;;;5.00;5.00;;;;;21.62;44.17;99877.63;110133;1250;23503;-34
2023/10/30 09:21:59;;;;;;;;;7.00;7.00;;;;;21.66;44.01;99885.14;110161;1251;20840;-34
2023/10/30 09:24:27;;;;;;;;;4.00;4.00;;;;;21.60;43.80;99892.65;110160;1265;18433;-34
2023/10/30 09:26:54;;;;;;;;;5.00;4.00;;;;;21.61;43.84;99898.69;110065;1265;20480;-34
2023/10/30 09:29:22;;;;;;;;;5.00;5.00;;;;;21.55;43.90;99906.19;110096;1249;20783;-34
2023/10/30 09:31:50;;;;;;;;;4.67;4.67;;;;;21.55;43.96;99911.77;110113;1265;19722;-34
2023/10/30 09:34:17;;;;;;;;;4.33;4.33;;;;;21.55;43.85;99905.96;110195;1250;20025;-33
2023/10/30 09:36:45;;;;;;;;;6.33;5.00;;;;;21.55;43.68;99913.77;110130;1250;20796;-34
2023/10/30 09:39:13;;;;;;;;;4.67;4.67;;;;;21.48;43.89;99928.38;110143;1265;19898;-34
2023/10/30 09:41:41;;;;;;;;;5.00;5.00;;;;;21.41;43.81;99931.36;110188;1250;19420;-34
2023/10/30 09:44:09;;;;;;;;;4.50;4.50;;;;;21.45;43.98;99936.76;110168;1265;20808;-33
2023/10/30 09:46:36;;;;;;;;;5.00;5.00;;;;;21.40;44.35;99937.69;110136;1265;22310;-34
2023/10/30 09:49:04;;;;;;;;;6.33;5.00;;;;;21.39;45.00;99940.11;110118;1250;20489;-34
2023/10/30 09:51:32;;;;;;;;;7.00;7.00;;;;;21.38;44.82;99943.17;110152;1265;22951;-33
2023/10/30 09:53:59;;;;;;;;;7.00;7.00;;;;;21.32;44.75;99950.21;110106;1250;19636;-33
2023/10/30 09:56:28;;;;;;;;;4.00;4.00;;;;;21.43;44.93;99949.48;110162;1250;20381;-34
2023/10/30 09:58:55;;;;;;;;;7.00;6.00;;;;;21.29;44.99;99960.83;110102;1265;22213;-34
2023/10/30 10:01:24;;;;;;;;;5.00;5.00;;;;;21.25;45.41;99962.89;110129;1250;18494;-33
2023/10/30 10:03:51;;;;;;;;;7.50;7.00;;;;;21.29;44.93;99970.80;110133;1253;19917;-33
2023/10/30 10:06:18;;;;;;;;;4.00;4.00;;;;;21.37;44.54;99977.34;110128;1253;21104;-33
2023/10/30 10:08:46;;;;;;;;;4.00;4.00;;;;;21.29;44.38;99980.60;110121;1257;19616;-32
2023/10/30 10:11:13;;;;;;;;;4.33;4.33;;;;;21.22;44.34;99988.64;110139;1249;19302;-34
2023/10/30 10:13:43;;;;;;;;;5.00;5.00;;;;;21.36;43.81;99976.92;110136;1251;20774;-34
2023/10/30 10:16:11;;;;;;;;;5.00;4.00;;;;;21.44;43.77;99975.45;110102;1250;19861;-33
2023/10/30 10:18:38;;;;;;;;;7.00;4.00;;;;;21.33;44.11;99976.30;110118;1251;20054;-33
2023/10/30 10:21:08;;;;;;;;;5.00;5.00;;;;;21.20;44.37;99972.48;110082;1250;22639;-33
2023/10/30 10:23:36;;;;;;;;;5.00;5.00;;;;;21.25;44.20;99971.45;110107;1250;19591;-33
2023/10/30 10:26:04;;;;;;;;;4.50;4.00;;;;;21.22;44.04;99967.27;110121;1253;20082;-33
2023/10/30 10:28:31;;;;;;;;;7.00;5.00;;;;;21.18;43.89;99961.48;110098;1259;22743;-33
2023/10/30 10:30:59;;;;;;;;;5.00;5.00;;;;;21.15;43.93;99955.64;110096;1259;19270;-33
2023/10/30 10:33:27;;;;;;;;;5.00;5.00;;;;;21.15;44.01;99948.14;110080;1250;22793;-33
2023/10/30 10:35:54;;;;;;;;;7.00;4.00;;;;;21.14;43.81;99954.45;110095;1250;21020;-34
2023/10/30 10:38:22;;;;;;;;;7.00;5.00;;;;;20.93;43.76;99956.51;110110;1250;19834;-34
2023/10/30 10:40:50;;;;;;;;;5.00;4.00;;;;;21.04;43.95;99966.67;109941;1250;22227;-34
2023/10/30 10:43:19;;;;;;;;;5.00;5.00;;;;;21.05;43.78;99973.30;110135;1265;19399;-34
2023/10/30 10:45:46;;;;;;;;;7.00;5.00;;;;;21.09;43.86;99970.04;110112;1265;19413;-34
2023/10/30 10:48:13;;;;;;;;;5.00;4.00;;;;;21.04;43.62;99967.91;110111;1265;20240;-34
2023/10/30 10:50:41;;;;;;;;;6.50;6.00;;;;;20.72;44.01;99970.16;110136;1250;20636;-34
2023/10/30 10:53:08;;;;;;;;;5.00;5.00;;;;;20.77;44.51;99969.98;110122;1265;18507;-34
2023/10/30 10:55:36;;;;;;;;;4.00;4.00;;;;;20.83;44.29;99968.88;110128;1265;18703;-34
2023/10/30 10:58:04;;;;;;;;;7.00;5.00;;;;;20.90;44.52;99961.98;110145;1250;20977;-33
2023/10/30 11:00:32;;;;;;;;;4.00;4.00;;;;;20.78;44.83;99958.84;110117;1251;20967;-33
2023/10/30 11:02:59;;;;;;;;;4.00;4.00;;;;;20.92;44.85;99950.30;110081;1249;20571;-34
2023/10/30 11:05:29;;;;;;;;;5.00;4.50;;;;;21.02;45.01;99947.36;110090;1251;21181;-33
2023/10/30 11:07:56;;;;;;;;;4.00;4.00;;;;;21.10;45.13;99948.46;110061;1265;19569;-33
2023/10/30 11:10:24;;;;;;;;;5.00;4.00;;;;;21.16;45.37;99953.78;110089;1249;22031;-32
2023/10/30 11:12:52;;;;;;;;;5.00;5.00;;;;;21.24;45.44;99951.80;110102;1265;19339;-33
2023/10/30 11:15:20;;;;;;;;;4.00;4.00;;;;;21.24;45.75;99950.59;110067;1265;19587;-33
2023/10/30 11:17:48;;;;;;;;;4.50;4.50;;;;;21.20;45.55;99943.61;110056;1265;20385;-34
2023/10/30 11:20:15;;;;;;;;;7.00;5.00;;;;;21.18;45.66;99943.40;109977;1265;21018;-33
2023/10/30 11:22:43;;;;;;;;;4.00;4.00;;;;;21.15;45.62;99943.27;110051;1265;19539;-33
2023/10/30 11:25:11;;;;;;;;;5.00;5.00;;;;;21.20;45.49;99935.34;110083;1251;20274;-33